createdAt,value
2022-10-23T00:01:20.597Z,11.10
2022-10-23T00:04:25.193Z,11.10
2022-10-23T00:07:27.290Z,11.10
2022-10-23T00:10:29.430Z,11.10
2022-10-23T00:13:31.467Z,11.10
2022-10-23T00:16:33.915Z,11.10
2022-10-23T00:19:36.019Z,11.10
2022-10-23T00:22:38.271Z,11.20
2022-10-23T00:25:40.297Z,11.40
2022-10-23T00:28:43.803Z,11.30
2022-10-23T00:31:45.857Z,11.50
2022-10-23T00:34:47.924Z,11.40
2022-10-23T00:37:50.172Z,11.50
2022-10-23T00:40:52.311Z,11.50
2022-10-23T00:44:04.953Z,11.70
2022-10-23T00:47:06.958Z,11.60
2022-10-23T00:50:09.093Z,11.60
2022-10-23T00:53:12.411Z,11.70
2022-10-23T00:56:14.449Z,11.70
2022-10-23T00:59:16.493Z,11.60
2022-10-23T01:02:18.613Z,11.60
2022-10-23T01:05:27.010Z,11.60
2022-10-23T01:08:40.243Z,11.50
2022-10-23T01:11:47.514Z,11.50
2022-10-23T01:15:10.731Z,11.50
2022-10-23T01:18:26.114Z,11.40
2022-10-23T01:21:30.920Z,11.40
2022-10-23T01:24:39.158Z,11.30
2022-10-23T01:27:42.498Z,11.20
2022-10-23T01:30:44.816Z,11.10
2022-10-23T01:33:56.349Z,11.10
2022-10-23T01:37:02.317Z,11.10
2022-10-23T01:40:06.275Z,11.10
2022-10-23T01:43:16.550Z,11.10
2022-10-23T01:46:18.801Z,11.00
2022-10-23T01:49:23.091Z,11.00
2022-10-23T01:52:29.005Z,11.00
2022-10-23T01:55:32.330Z,10.90
2022-10-23T01:58:36.363Z,11.00
2022-10-23T02:01:40.185Z,10.90
2022-10-23T02:05:04.947Z,10.90
2022-10-23T02:08:07.042Z,10.90
2022-10-23T02:11:15.089Z,10.90
2022-10-23T02:14:42.179Z,10.90
2022-10-23T02:18:07.539Z,10.90
2022-10-23T02:21:17.140Z,10.90
2022-10-23T02:24:49.431Z,10.90
2022-10-23T02:27:54.578Z,11.00
2022-10-23T02:31:00.189Z,10.80
2022-10-23T02:34:02.854Z,10.90
2022-10-23T02:37:04.941Z,10.80
2022-10-23T02:40:07.898Z,10.90
2022-10-23T02:43:27.772Z,10.90
2022-10-23T02:46:50.322Z,10.90
2022-10-23T02:50:23.050Z,10.90
2022-10-23T02:53:28.127Z,11.00
2022-10-23T02:56:50.282Z,11.00
2022-10-23T03:00:15.457Z,11.10
2022-10-23T03:03:22.471Z,11.10
2022-10-23T03:06:24.703Z,11.10
2022-10-23T03:09:28.034Z,11.10
2022-10-23T03:12:31.459Z,11.10
2022-10-23T03:15:34.354Z,11.00
2022-10-23T03:18:36.454Z,10.90
2022-10-23T03:21:38.861Z,10.80
2022-10-23T03:24:43.423Z,10.80
2022-10-23T03:27:45.523Z,10.90
2022-10-23T03:30:50.666Z,10.90
2022-10-23T03:33:52.777Z,10.80
2022-10-23T03:36:56.559Z,10.90
2022-10-23T03:39:58.603Z,11.10
2022-10-23T03:43:00.672Z,11.10
2022-10-23T03:46:09.207Z,11.20
2022-10-23T03:49:11.416Z,11.20
2022-10-23T03:52:17.440Z,11.30
2022-10-23T03:55:19.593Z,11.40
2022-10-23T03:58:21.652Z,11.40
2022-10-23T04:01:24.302Z,11.30
2022-10-23T04:04:26.547Z,11.10
2022-10-23T04:07:29.086Z,11.00
2022-10-23T04:10:31.928Z,11.00
2022-10-23T04:13:33.964Z,10.90
2022-10-23T04:16:36.017Z,10.90
2022-10-23T04:19:38.115Z,10.90
2022-10-23T04:22:40.441Z,10.90
2022-10-23T04:25:42.726Z,11.00
2022-10-23T04:28:44.782Z,11.00
2022-10-23T04:31:46.842Z,11.00
2022-10-23T04:34:48.884Z,11.10
2022-10-23T04:37:51.052Z,11.10
2022-10-23T04:40:53.089Z,11.10
2022-10-23T04:43:57.162Z,11.00
2022-10-23T04:46:59.258Z,11.00
2022-10-23T04:50:01.523Z,11.00
2022-10-23T04:53:21.880Z,11.00
2022-10-23T04:56:45.195Z,10.90
2022-10-23T04:59:51.253Z,10.90
2022-10-23T05:02:53.577Z,10.90
2022-10-23T05:05:56.864Z,11.00
2022-10-23T05:09:17.581Z,11.00
2022-10-23T05:12:31.060Z,11.00
2022-10-23T05:15:33.211Z,11.00
2022-10-23T05:18:40.889Z,11.10
2022-10-23T05:21:42.975Z,11.10
2022-10-23T05:24:48.238Z,11.10
2022-10-23T05:27:56.214Z,11.00
2022-10-23T05:30:59.548Z,11.00
2022-10-23T05:34:03.104Z,11.00
2022-10-23T05:37:06.334Z,11.00
2022-10-23T05:40:12.586Z,11.00
2022-10-23T05:43:16.420Z,11.10
2022-10-23T05:46:23.925Z,11.20
2022-10-23T05:49:49.091Z,11.30
2022-10-23T05:52:56.564Z,11.50
2022-10-23T05:56:19.026Z,11.60
2022-10-23T05:59:39.611Z,11.60
2022-10-23T06:03:02.307Z,11.60
2022-10-23T06:06:14.774Z,11.70
2022-10-23T06:09:20.827Z,11.70
2022-10-23T06:12:24.658Z,11.60
2022-10-23T06:15:28.185Z,11.50
2022-10-23T06:18:38.003Z,11.50
2022-10-23T06:21:45.725Z,11.50
2022-10-23T06:24:49.864Z,11.50
2022-10-23T06:27:57.272Z,11.50
2022-10-23T06:30:59.424Z,11.40
2022-10-23T06:34:01.718Z,11.50
2022-10-23T06:37:06.039Z,11.50
2022-10-23T06:40:20.635Z,11.50
2022-10-23T06:43:37.482Z,11.50
2022-10-23T06:47:02.163Z,11.50
2022-10-23T06:50:33.001Z,11.50
2022-10-23T06:53:40.383Z,11.50
2022-10-23T06:57:05.238Z,11.50
2022-10-23T07:00:17.341Z,11.50
2022-10-23T07:03:25.327Z,11.60
2022-10-23T07:06:27.949Z,11.50
2022-10-23T07:09:30.138Z,11.60
2022-10-23T07:12:32.181Z,11.70
2022-10-23T07:15:52.794Z,11.70
2022-10-23T07:19:01.210Z,11.70
2022-10-23T07:22:03.281Z,11.70
2022-10-23T07:25:14.208Z,11.60
2022-10-23T07:28:16.520Z,11.70
2022-10-23T07:31:18.896Z,11.80
2022-10-23T07:34:44.239Z,11.80
2022-10-23T07:37:57.007Z,11.80
2022-10-23T07:40:59.872Z,11.90
2022-10-23T07:44:02.088Z,12.00
2022-10-23T07:47:04.416Z,12.10
2022-10-23T07:50:07.721Z,12.10
2022-10-23T07:53:21.141Z,12.30
2022-10-23T07:56:29.868Z,12.30
2022-10-23T07:59:52.115Z,12.50
2022-10-23T08:02:56.515Z,12.60
2022-10-23T08:05:59.100Z,12.70
2022-10-23T08:09:05.472Z,12.70
2022-10-23T08:12:11.123Z,12.60
2022-10-23T08:15:13.353Z,12.70
2022-10-23T08:18:27.528Z,12.80
2022-10-23T08:21:31.191Z,12.70
2022-10-23T08:24:33.310Z,12.70
2022-10-23T08:27:35.506Z,12.80
2022-10-23T08:30:37.848Z,12.80
2022-10-23T08:33:41.075Z,12.70
2022-10-23T08:36:43.533Z,12.70
2022-10-23T08:39:49.080Z,12.70
2022-10-23T08:43:13.344Z,12.70
2022-10-23T08:46:30.302Z,12.60
2022-10-23T08:50:25.630Z,12.50
2022-10-23T08:53:39.286Z,12.50
2022-10-23T08:56:54.610Z,12.40
2022-10-23T09:00:00.363Z,12.40
2022-10-23T09:03:04.885Z,12.60
2022-10-23T09:06:41.058Z,12.60
2022-10-23T09:10:21.515Z,12.70
2022-10-23T09:13:40.725Z,12.80
2022-10-23T09:20:28.167Z,12.90
2022-10-23T09:23:30.237Z,12.80
2022-10-23T09:26:39.790Z,12.60
2022-10-23T09:29:50.385Z,12.50
2022-10-23T09:32:52.507Z,12.50
2022-10-23T09:36:06.806Z,12.50
2022-10-23T09:39:31.460Z,12.50
2022-10-23T09:42:33.660Z,12.60
2022-10-23T09:45:36.090Z,12.60
2022-10-23T09:48:42.559Z,12.60
2022-10-23T09:52:10.741Z,12.60
2022-10-23T09:55:23.111Z,12.60
2022-10-23T09:58:32.040Z,12.60
2022-10-23T10:01:50.757Z,12.50
2022-10-23T10:05:27.804Z,12.60
2022-10-23T10:08:46.850Z,12.60
2022-10-23T10:11:54.180Z,12.70
2022-10-23T10:15:02.206Z,12.70
2022-10-23T10:18:36.179Z,12.70
2022-10-23T10:22:20.860Z,12.80
2022-10-23T10:25:45.054Z,12.80
2022-10-23T10:28:58.301Z,12.70
2022-10-23T10:32:11.898Z,12.70
2022-10-23T10:35:27.116Z,12.70
2022-10-23T10:38:58.873Z,12.70
2022-10-23T10:42:27.963Z,12.70
2022-10-23T10:45:49.869Z,12.80
2022-10-23T10:49:33.739Z,12.90
2022-10-23T10:53:20.531Z,12.90
2022-10-23T10:56:23.360Z,12.90
2022-10-23T10:59:29.378Z,12.80
2022-10-23T11:02:42.662Z,12.80
2022-10-23T11:05:49.056Z,12.90
2022-10-23T11:08:58.211Z,13.10
2022-10-23T11:12:24.223Z,13.10
2022-10-23T11:15:35.485Z,13.00
2022-10-23T11:18:37.555Z,13.10
2022-10-23T11:21:55.560Z,13.10
2022-10-23T11:25:35.053Z,13.10
2022-10-23T11:29:12.094Z,13.00
2022-10-23T11:32:37.124Z,13.00
2022-10-23T11:35:54.843Z,13.00
2022-10-23T11:39:05.591Z,13.00
2022-10-23T11:42:07.549Z,13.00
2022-10-23T11:45:38.898Z,13.00
2022-10-23T11:48:43.258Z,13.00
2022-10-23T11:51:45.315Z,13.10
2022-10-23T11:54:47.347Z,13.00
2022-10-23T11:58:22.435Z,13.00
2022-10-23T12:01:45.725Z,13.10
2022-10-23T12:04:50.357Z,13.00
2022-10-23T12:07:57.810Z,13.00
2022-10-23T12:10:59.827Z,13.00
2022-10-23T12:14:01.934Z,13.10
2022-10-23T12:17:24.654Z,13.10
2022-10-23T12:20:59.787Z,13.10
2022-10-23T12:24:23.589Z,13.00
2022-10-23T12:27:46.307Z,13.00
2022-10-23T12:31:00.914Z,13.10
2022-10-23T12:34:29.029Z,13.10
2022-10-23T12:38:05.022Z,13.10
2022-10-23T12:41:26.283Z,13.10
2022-10-23T12:44:28.426Z,13.10
2022-10-23T12:47:31.998Z,13.10
2022-10-23T12:50:34.436Z,13.10
2022-10-23T12:53:37.230Z,13.10
2022-10-23T12:56:39.411Z,13.10
2022-10-23T12:59:42.761Z,13.10
2022-10-23T13:02:45.011Z,13.10
2022-10-23T13:05:47.156Z,13.10
2022-10-23T13:08:49.262Z,13.10
2022-10-23T13:12:29.641Z,13.10
2022-10-23T13:15:39.832Z,13.10
2022-10-23T13:18:42.365Z,13.00
2022-10-23T13:21:45.922Z,13.10
2022-10-23T13:24:48.047Z,13.00
2022-10-23T13:27:50.107Z,13.00
2022-10-23T13:31:29.552Z,13.00
2022-10-23T13:34:31.823Z,13.00
2022-10-23T13:37:34.507Z,12.90
2022-10-23T13:40:36.728Z,12.90
2022-10-23T13:43:38.759Z,12.90
2022-10-23T13:46:41.003Z,13.00
2022-10-23T13:49:43.063Z,13.00
2022-10-23T13:52:45.151Z,13.10
2022-10-23T13:55:52.478Z,13.10
2022-10-23T13:58:56.941Z,13.10
2022-10-23T14:01:59.655Z,13.10
2022-10-23T14:05:01.808Z,13.10
2022-10-23T14:08:03.885Z,13.10
2022-10-23T14:11:06.266Z,13.10
2022-10-23T14:14:08.550Z,13.10
2022-10-23T14:17:10.629Z,13.10
2022-10-23T14:20:12.877Z,13.10
2022-10-23T14:23:14.999Z,13.00
2022-10-23T14:26:22.050Z,13.10
2022-10-23T14:29:24.615Z,13.10
2022-10-23T14:32:26.798Z,13.00
2022-10-23T14:35:28.933Z,13.00
2022-10-23T14:38:30.975Z,12.90
2022-10-23T14:41:33.010Z,12.90
2022-10-23T14:44:35.312Z,12.90
2022-10-23T14:47:37.451Z,12.90
2022-10-23T14:50:48.216Z,12.90
2022-10-23T14:53:58.715Z,12.90
2022-10-23T14:57:01.107Z,12.90
2022-10-23T15:00:04.911Z,13.00
2022-10-23T15:03:07.006Z,13.00
2022-10-23T15:06:09.100Z,13.00
2022-10-23T15:09:11.264Z,13.00
2022-10-23T15:12:13.327Z,13.00
2022-10-23T15:15:15.440Z,13.00
2022-10-23T15:18:19.613Z,13.00
2022-10-23T15:21:21.667Z,12.90
2022-10-23T15:24:23.866Z,12.90
2022-10-23T15:27:25.978Z,12.90
2022-10-23T15:30:28.072Z,12.90
2022-10-23T15:33:30.187Z,13.00
2022-10-23T15:36:32.290Z,12.90
2022-10-23T15:39:35.532Z,13.00
2022-10-23T15:42:37.603Z,13.00
2022-10-23T15:45:40.197Z,12.90
2022-10-23T15:48:42.683Z,12.90
2022-10-23T15:51:44.951Z,12.90
2022-10-23T15:54:46.990Z,13.00
2022-10-23T15:57:49.039Z,13.00
2022-10-23T16:00:51.080Z,13.00
2022-10-23T16:03:53.157Z,13.00
2022-10-23T16:06:55.182Z,13.00
2022-10-23T16:09:57.266Z,13.00
2022-10-23T16:12:59.343Z,13.00
2022-10-23T16:16:03.913Z,13.00
2022-10-23T16:19:06.072Z,13.00
2022-10-23T16:22:08.390Z,13.00
2022-10-23T16:25:10.449Z,13.00
2022-10-23T16:28:12.522Z,13.00
2022-10-23T16:31:20.322Z,13.00
2022-10-23T16:34:23.091Z,13.00
2022-10-23T16:37:25.164Z,12.90
2022-10-23T16:40:33.942Z,12.90
2022-10-23T16:43:54.438Z,12.90
2022-10-23T16:47:11.989Z,12.90
2022-10-23T16:50:15.473Z,12.90
2022-10-23T16:53:17.672Z,13.00
2022-10-23T16:56:22.783Z,13.00
2022-10-23T16:59:24.857Z,13.00
2022-10-23T17:02:27.212Z,13.00
2022-10-23T17:05:32.262Z,13.00
2022-10-23T17:08:34.427Z,13.00
2022-10-23T17:11:38.793Z,13.00
2022-10-23T17:14:40.865Z,13.00
2022-10-23T17:17:43.190Z,13.00
2022-10-23T17:20:45.438Z,13.00
2022-10-23T17:23:47.783Z,13.10
2022-10-23T17:26:50.018Z,13.10
2022-10-23T17:29:52.054Z,13.10
2022-10-23T17:32:58.151Z,13.10
2022-10-23T17:36:03.151Z,13.00
2022-10-23T17:39:06.155Z,13.00
2022-10-23T17:42:08.214Z,13.10
2022-10-23T17:45:10.591Z,13.10
2022-10-23T17:48:13.506Z,13.10
2022-10-23T17:51:24.004Z,13.10
2022-10-23T17:54:26.660Z,13.10
2022-10-23T17:57:28.707Z,13.10
2022-10-23T18:00:30.811Z,13.20
2022-10-23T18:03:33.219Z,13.20
2022-10-23T18:06:40.299Z,13.20
2022-10-23T18:09:42.335Z,13.20
2022-10-23T18:12:44.389Z,13.20
2022-10-23T18:15:46.960Z,13.20
2022-10-23T18:18:49.094Z,13.20
2022-10-23T18:21:51.131Z,13.20
2022-10-23T18:24:53.269Z,13.20
2022-10-23T18:27:59.084Z,13.10
2022-10-23T18:31:02.513Z,13.20
2022-10-23T18:34:10.239Z,13.20
2022-10-23T18:37:12.267Z,13.30
2022-10-23T18:40:14.432Z,13.20
2022-10-23T18:43:31.344Z,13.20
2022-10-23T18:46:38.562Z,13.30
2022-10-23T18:49:40.668Z,13.30
2022-10-23T18:52:42.739Z,13.40
2022-10-23T18:55:46.363Z,13.40
2022-10-23T18:58:50.642Z,13.40
2022-10-23T19:01:52.878Z,13.40
2022-10-23T19:04:55.144Z,13.50
2022-10-23T19:07:57.321Z,13.40
2022-10-23T19:11:00.410Z,13.40
2022-10-23T19:14:02.644Z,13.40
2022-10-23T19:17:12.424Z,13.30
2022-10-23T19:20:16.739Z,13.30
2022-10-23T19:23:18.826Z,13.40
2022-10-23T19:26:21.138Z,13.40
2022-10-23T19:29:24.191Z,13.40
2022-10-23T19:32:26.228Z,13.40
2022-10-23T19:35:28.319Z,13.40
2022-10-23T19:38:30.390Z,13.30
2022-10-23T19:41:32.437Z,13.30
2022-10-23T19:44:34.913Z,13.30
2022-10-23T19:47:36.961Z,13.20
2022-10-23T19:50:41.983Z,13.10
2022-10-23T19:53:44.070Z,13.10
2022-10-23T19:56:46.262Z,13.10
2022-10-23T19:59:50.149Z,13.20
2022-10-23T20:02:55.157Z,13.20
2022-10-23T20:05:57.594Z,13.10
2022-10-23T20:08:59.675Z,13.00
2022-10-23T20:12:01.806Z,12.90
2022-10-23T20:15:04.151Z,12.90
2022-10-23T20:18:06.187Z,12.80
2022-10-23T20:21:08.261Z,12.80
2022-10-23T20:24:11.566Z,12.90
2022-10-23T20:27:18.560Z,13.00
2022-10-23T20:30:20.599Z,12.90
2022-10-23T20:33:22.888Z,13.10
2022-10-23T20:36:33.652Z,13.10
2022-10-23T20:39:36.691Z,13.10
2022-10-23T20:42:38.722Z,12.90
2022-10-23T20:45:40.762Z,13.00
2022-10-23T20:48:43.997Z,12.90
2022-10-23T20:51:54.081Z,12.90
2022-10-23T20:54:57.536Z,12.90
2022-10-23T20:57:59.594Z,12.90
2022-10-23T21:01:16.426Z,13.00
2022-10-23T21:04:20.549Z,13.00
2022-10-23T21:07:22.749Z,12.90
2022-10-23T21:10:24.932Z,12.90
2022-10-23T21:13:27.960Z,12.90
2022-10-23T21:16:35.514Z,13.00
2022-10-23T21:19:39.122Z,12.90
2022-10-23T21:22:41.346Z,12.90
2022-10-23T21:25:43.889Z,12.90
2022-10-23T21:28:55.757Z,13.00
2022-10-23T21:32:03.122Z,12.90
2022-10-23T21:35:05.994Z,12.80
2022-10-23T21:38:08.769Z,12.70
2022-10-23T21:41:17.093Z,12.70
2022-10-23T21:44:19.294Z,12.70
2022-10-23T21:47:21.366Z,12.70
2022-10-23T21:50:23.459Z,12.60
2022-10-23T21:53:26.133Z,12.50
2022-10-23T21:56:43.083Z,12.50
2022-10-23T21:59:45.254Z,12.40
2022-10-23T22:02:48.045Z,12.40
2022-10-23T22:05:50.367Z,12.50
2022-10-23T22:08:53.078Z,12.50
2022-10-23T22:11:55.170Z,12.50
2022-10-23T22:14:57.417Z,12.50
2022-10-23T22:18:00.446Z,12.30
2022-10-23T22:21:14.145Z,12.20
2022-10-23T22:24:17.526Z,12.10
2022-10-23T22:27:19.614Z,12.10
2022-10-23T22:30:21.699Z,12.10
2022-10-23T22:33:23.709Z,11.80
2022-10-23T22:36:25.996Z,11.70
2022-10-23T22:39:28.025Z,11.50
2022-10-23T22:42:30.290Z,11.50
2022-10-23T22:45:32.373Z,11.40
2022-10-23T22:48:35.040Z,11.50
2022-10-23T22:51:37.321Z,11.50
2022-10-23T22:54:39.406Z,11.60
2022-10-23T22:57:41.618Z,11.70
2022-10-23T23:00:43.859Z,11.80
2022-10-23T23:03:46.114Z,11.90
2022-10-23T23:06:48.143Z,11.90
2022-10-23T23:09:50.226Z,11.90
2022-10-23T23:12:52.519Z,11.90
2022-10-23T23:15:54.710Z,11.90
2022-10-23T23:19:01.093Z,11.90
2022-10-23T23:22:03.167Z,11.90
2022-10-23T23:25:05.744Z,11.90
2022-10-23T23:28:07.818Z,11.80
2022-10-23T23:31:17.990Z,11.50
2022-10-23T23:34:20.649Z,11.40
2022-10-23T23:37:22.688Z,11.40
2022-10-23T23:40:24.713Z,11.20
2022-10-23T23:43:26.749Z,10.90
2022-10-23T23:46:28.878Z,10.80
2022-10-23T23:49:30.904Z,10.80
2022-10-23T23:52:33.035Z,10.80
2022-10-23T23:55:35.304Z,10.80
2022-10-23T23:58:37.498Z,10.70
